Aviation Digital Data Service (ADDS)

Output produced by METARs form (1045 UTC 17 June 2019)
found at http://www.aviationweather.gov/metar/data/
 
Forecast for: BGMQ (MANIITSOQ , GL)
Text: TAF BGMQ 170901Z 1709/1718 29004KT 9999 FEW002
Forecast period: 0900 to 1800 UTC 17 June 2019
Forecast type: FROM: standard forecast or significant change
Winds: from the WNW (290 degrees) at 5 MPH (4 knots; 2.1 m/s)
Visibility: 6 or more miles 10+ km)
Ceiling: at least 12,000 feet AGL
Clouds: few clouds at 200 feet AGL
Weather: no significant weather forecast for this period